createdAt,value
2022-12-19T05:58:16.130Z,-5.80
2022-12-19T06:00:50.149Z,-5.60
2022-12-19T06:03:24.092Z,-5.60
2022-12-19T06:05:58.281Z,-5.58
2022-12-19T06:08:32.349Z,-5.58
2022-12-19T06:11:08.273Z,-5.60
2022-12-19T06:13:43.285Z,-5.60
2022-12-19T06:16:20.077Z,-5.68
2022-12-19T06:18:54.150Z,-5.70
2022-12-19T06:21:28.458Z,-5.78
2022-12-19T06:24:02.398Z,-5.74
2022-12-19T06:26:36.470Z,-5.70
2022-12-19T06:29:10.270Z,-5.70
2022-12-19T06:31:44.021Z,-5.64
2022-12-19T06:34:33.210Z,-5.66
2022-12-19T06:37:12.937Z,-5.60
2022-12-19T06:39:47.272Z,-5.60
2022-12-19T06:42:24.123Z,-5.70
2022-12-19T06:44:58.860Z,-5.70
2022-12-19T06:47:34.245Z,-5.60
2022-12-19T06:50:09.552Z,-5.60
2022-12-19T06:52:43.291Z,-5.60
2022-12-19T06:55:17.629Z,-5.60
2022-12-19T06:57:51.831Z,-5.54
2022-12-19T07:00:26.079Z,-5.50
2022-12-19T07:03:01.982Z,-5.50
2022-12-19T07:05:36.422Z,-5.40
2022-12-19T07:08:11.297Z,-5.30
2022-12-19T07:10:45.317Z,-5.30
2022-12-19T07:13:19.268Z,-5.30
2022-12-19T07:15:55.546Z,-5.30
2022-12-19T07:18:32.451Z,-5.26
2022-12-19T07:21:08.750Z,-5.20
2022-12-19T07:23:43.985Z,-5.10
2022-12-19T07:26:18.635Z,-5.02
2022-12-19T07:28:52.447Z,-4.90
2022-12-19T07:31:26.184Z,-4.86
2022-12-19T07:34:00.127Z,-4.80
2022-12-19T07:36:34.346Z,-4.70
2022-12-19T07:39:08.520Z,-4.60
2022-12-19T07:41:43.454Z,-4.52
2022-12-19T07:44:17.909Z,-4.50
2022-12-19T07:46:51.893Z,-4.44
2022-12-19T07:49:26.019Z,-4.40
2022-12-19T07:52:00.074Z,-4.30
2022-12-19T07:54:35.214Z,-4.28
2022-12-19T07:57:09.916Z,-4.12
2022-12-19T07:59:43.967Z,-4.00
2022-12-19T08:02:18.355Z,-3.90
2022-12-19T08:04:52.510Z,-3.84
2022-12-19T08:07:27.132Z,-3.80
2022-12-19T08:10:01.445Z,-3.70
2022-12-19T08:12:39.284Z,-3.60
2022-12-19T08:15:14.791Z,-3.46
2022-12-19T08:17:49.588Z,-3.30
2022-12-19T08:20:24.361Z,-3.28
2022-12-19T08:22:58.466Z,-3.16
2022-12-19T08:25:35.926Z,-3.08
2022-12-19T08:28:10.053Z,-2.90
2022-12-19T08:30:45.046Z,-2.78
2022-12-19T08:33:19.369Z,-2.60
2022-12-19T08:35:53.600Z,-2.50
2022-12-19T08:38:28.939Z,-2.40
2022-12-19T08:41:03.996Z,-2.30
2022-12-19T08:43:38.432Z,-2.30
2022-12-19T08:46:12.775Z,-2.20
2022-12-19T08:48:48.233Z,-2.14
2022-12-19T08:51:22.526Z,-2.14
2022-12-19T08:53:56.890Z,-2.12
2022-12-19T08:56:30.973Z,-2.20
2022-12-19T08:59:06.683Z,-2.10
2022-12-19T09:01:40.499Z,-2.10
2022-12-19T09:05:57.508Z,-2.00
2022-12-19T09:07:10.022Z,-1.80
2022-12-19T09:09:45.370Z,-1.70
2022-12-19T09:12:20.377Z,-1.50
2022-12-19T09:14:55.037Z,-1.40
2022-12-19T09:17:29.588Z,-1.30
2022-12-19T09:20:03.499Z,-1.10
2022-12-19T09:22:37.858Z,-0.90
2022-12-19T09:25:14.895Z,-0.72
2022-12-19T09:28:25.841Z,-0.60
2022-12-19T09:30:43.009Z,-0.50
2022-12-19T09:33:17.954Z,-0.30
2022-12-19T09:36:18.713Z,-0.10
2022-12-19T09:39:00.462Z,0.02
2022-12-19T09:42:23.118Z,0.18
2022-12-19T09:45:36.338Z,0.30
2022-12-19T09:48:24.555Z,0.42
2022-12-19T09:51:18.520Z,0.56
2022-12-19T09:54:03.679Z,0.80
2022-12-19T09:56:54.075Z,1.10
2022-12-19T09:59:47.934Z,1.28
2022-12-19T10:02:42.109Z,1.50
2022-12-19T10:06:04.647Z,1.60
2022-12-19T10:08:33.296Z,1.80
2022-12-19T10:12:39.748Z,1.92
2022-12-19T10:14:53.281Z,2.10
2022-12-19T10:17:54.981Z,2.30
2022-12-19T10:20:41.746Z,2.40
2022-12-19T10:24:04.126Z,2.50
2022-12-19T10:26:53.108Z,2.50
2022-12-19T10:30:04.376Z,2.50
2022-12-19T10:33:00.915Z,2.64
2022-12-19T10:35:44.247Z,2.80
2022-12-19T10:38:38.356Z,2.90
2022-12-19T10:41:25.918Z,3.00
2022-12-19T10:44:07.591Z,3.10
2022-12-19T10:46:54.085Z,3.20
2022-12-19T10:49:30.970Z,3.42
2022-12-19T10:52:08.803Z,3.60
2022-12-19T10:54:53.976Z,3.70
2022-12-19T10:57:32.701Z,3.80
2022-12-19T11:00:16.405Z,4.00
2022-12-19T11:02:53.756Z,4.10
2022-12-19T11:05:32.356Z,4.24
2022-12-19T11:08:24.889Z,4.32
2022-12-19T11:12:08.052Z,4.40
2022-12-19T11:18:56.751Z,4.36
2022-12-19T11:27:10.913Z,4.40
2022-12-19T11:29:35.141Z,4.40
2022-12-19T11:29:54.950Z,4.40
2022-12-19T11:29:55.166Z,4.40
2022-12-19T11:33:19.938Z,4.50
2022-12-19T11:35:58.517Z,4.50
2022-12-19T11:38:49.100Z,4.54
2022-12-19T11:41:39.145Z,4.64
2022-12-19T11:44:31.112Z,4.70
2022-12-19T11:47:26.887Z,4.80
2022-12-19T11:50:12.669Z,5.00
2022-12-19T11:53:05.964Z,5.00
2022-12-19T11:55:52.252Z,5.00
2022-12-19T11:58:37.446Z,5.10
2022-12-19T12:01:25.980Z,5.02
2022-12-19T12:04:34.455Z,5.00
2022-12-19T12:07:39.871Z,5.02
2022-12-19T12:14:55.769Z,5.00
2022-12-19T12:22:48.707Z,5.04
2022-12-19T12:31:07.084Z,4.70
2022-12-19T12:31:15.190Z,5.00
2022-12-19T12:31:31.196Z,5.00
2022-12-19T12:31:45.374Z,4.70
2022-12-19T12:31:50.785Z,4.70
2022-12-19T12:35:42.373Z,4.80
2022-12-19T12:39:55.072Z,4.72
2022-12-19T12:42:48.595Z,4.72
2022-12-19T12:45:28.858Z,4.80
2022-12-19T12:48:04.090Z,4.80
2022-12-19T12:50:53.162Z,4.80
2022-12-19T12:53:37.968Z,4.70
2022-12-19T12:56:23.223Z,4.70
2022-12-19T12:59:27.245Z,4.70
2022-12-19T13:02:19.776Z,4.70
2022-12-19T13:05:17.010Z,4.80
2022-12-19T13:07:57.843Z,4.72
2022-12-19T13:10:40.904Z,4.70
2022-12-19T13:13:25.680Z,4.74
2022-12-19T13:16:50.020Z,4.80
2022-12-19T13:19:30.846Z,4.90
2022-12-19T13:22:42.977Z,4.90
2022-12-19T13:25:55.370Z,4.90
2022-12-19T13:28:46.450Z,4.80
2022-12-19T13:31:24.064Z,4.70
2022-12-19T13:34:22.392Z,4.60
2022-12-19T13:39:50.928Z,4.48
2022-12-19T13:40:32.838Z,4.24
2022-12-19T13:43:38.365Z,4.10
2022-12-19T13:46:41.567Z,4.00
2022-12-19T13:49:28.902Z,3.90
2022-12-19T13:52:13.515Z,3.80
2022-12-19T13:54:58.709Z,3.68
2022-12-19T13:57:35.064Z,3.60
2022-12-19T14:00:21.857Z,3.50
2022-12-19T14:03:00.183Z,3.40
2022-12-19T14:06:17.506Z,3.30
2022-12-19T14:08:35.293Z,3.20
2022-12-19T14:11:27.405Z,3.10
2022-12-19T14:14:35.327Z,3.00
2022-12-19T14:17:19.602Z,2.90
2022-12-19T14:20:28.594Z,2.88
2022-12-19T14:22:56.322Z,2.80
2022-12-19T14:28:14.936Z,2.70
2022-12-19T14:28:54.539Z,2.68
2022-12-19T14:31:30.735Z,2.60
2022-12-19T14:34:43.218Z,2.60
2022-12-19T14:37:01.592Z,2.60
2022-12-19T14:39:38.919Z,2.50
2022-12-19T14:43:59.131Z,2.50
2022-12-19T14:52:53.686Z,2.40
2022-12-19T14:54:18.272Z,2.40
2022-12-19T14:54:33.735Z,2.40
2022-12-19T14:58:54.409Z,2.30
2022-12-19T15:01:08.226Z,2.30
2022-12-19T15:04:49.168Z,2.30
2022-12-19T15:07:09.249Z,2.20
2022-12-19T15:11:02.448Z,2.20
2022-12-19T15:14:51.166Z,2.10
2022-12-19T15:16:31.236Z,2.10
2022-12-19T15:19:11.877Z,2.10
2022-12-19T15:21:45.761Z,2.00
2022-12-19T15:24:20.550Z,2.00
2022-12-19T15:26:58.725Z,2.00
2022-12-19T15:29:36.288Z,2.00
2022-12-19T15:32:16.243Z,1.90
2022-12-19T15:34:51.822Z,1.90
2022-12-19T15:37:26.065Z,1.90
2022-12-19T15:40:00.090Z,1.90
2022-12-19T15:42:34.883Z,1.90
2022-12-19T15:45:13.978Z,1.90
2022-12-19T15:47:50.337Z,1.90
2022-12-19T15:50:27.967Z,1.90
2022-12-19T15:53:24.500Z,1.90
2022-12-19T15:56:10.355Z,1.90
2022-12-19T15:58:44.671Z,1.90
2022-12-19T16:01:19.316Z,1.90
2022-12-19T16:03:54.713Z,1.90
2022-12-19T16:06:29.128Z,1.86
2022-12-19T16:09:10.270Z,1.80
2022-12-19T16:11:44.808Z,1.80
2022-12-19T16:14:20.154Z,1.80
2022-12-19T16:16:57.675Z,1.80
2022-12-19T16:19:33.757Z,1.80
2022-12-19T16:22:22.657Z,1.80
2022-12-19T16:24:58.587Z,1.80
2022-12-19T16:27:34.067Z,1.80
2022-12-19T16:30:23.935Z,1.80
2022-12-19T16:32:58.275Z,1.80
2022-12-19T16:36:04.757Z,1.80
2022-12-19T16:38:28.001Z,1.80
2022-12-19T16:41:02.713Z,1.88
2022-12-19T16:43:40.019Z,1.90
2022-12-19T16:46:23.611Z,1.90
2022-12-19T16:48:58.593Z,1.90
2022-12-19T16:51:33.755Z,1.90
2022-12-19T16:54:08.429Z,1.90
2022-12-19T16:56:47.956Z,1.90
2022-12-19T16:59:28.427Z,1.90
2022-12-19T17:02:03.376Z,1.92
2022-12-19T17:04:42.014Z,1.92
2022-12-19T17:07:17.659Z,2.00
2022-12-19T17:09:52.284Z,2.00
2022-12-19T17:12:28.692Z,2.00
2022-12-19T17:15:03.736Z,2.00
2022-12-19T17:17:37.526Z,2.00
2022-12-19T17:20:19.789Z,2.00
2022-12-19T17:22:53.878Z,2.10
2022-12-19T17:25:29.918Z,2.10
2022-12-19T17:28:04.202Z,2.10
2022-12-19T17:30:39.958Z,2.10
2022-12-19T17:33:17.689Z,2.10
2022-12-19T17:35:51.809Z,2.14
2022-12-19T17:38:27.937Z,2.10
2022-12-19T17:41:01.910Z,2.18
2022-12-19T17:43:35.979Z,2.20
2022-12-19T17:46:20.306Z,2.20
2022-12-19T17:48:56.046Z,2.20
2022-12-19T17:51:30.279Z,2.20
2022-12-19T17:54:04.386Z,2.30
2022-12-19T17:56:38.536Z,2.30
2022-12-19T17:59:12.405Z,2.30
2022-12-19T18:01:47.649Z,2.30
2022-12-19T18:04:32.855Z,2.30
2022-12-19T18:07:11.735Z,2.30
2022-12-19T18:09:46.225Z,2.30
2022-12-19T18:12:20.539Z,2.30
2022-12-19T18:14:54.594Z,2.34
2022-12-19T18:17:30.793Z,2.40
2022-12-19T18:20:06.322Z,2.40
2022-12-19T18:22:40.165Z,2.40
2022-12-19T18:25:21.116Z,2.40
2022-12-19T18:27:56.227Z,2.40
2022-12-19T18:30:30.251Z,2.40
2022-12-19T18:33:08.098Z,2.40
2022-12-19T18:35:47.603Z,2.40
2022-12-19T18:38:24.625Z,2.40
2022-12-19T18:40:58.761Z,2.40
2022-12-19T18:43:32.825Z,2.38
2022-12-19T18:46:07.177Z,2.30
2022-12-19T18:48:42.564Z,2.30
2022-12-19T18:51:21.992Z,2.30
2022-12-19T18:53:56.145Z,2.30
2022-12-19T18:56:30.515Z,2.30
2022-12-19T18:59:05.183Z,2.30
2022-12-19T19:01:41.231Z,2.30
2022-12-19T19:04:18.293Z,2.30
2022-12-19T19:06:55.205Z,2.30
2022-12-19T19:09:29.216Z,2.30
2022-12-19T19:12:03.166Z,2.30
2022-12-19T19:14:38.007Z,2.30
2022-12-19T19:17:32.175Z,2.30
2022-12-19T19:20:09.505Z,2.38
2022-12-19T19:22:43.510Z,2.40
2022-12-19T19:25:17.736Z,2.38
2022-12-19T19:27:52.101Z,2.40
2022-12-19T19:30:26.543Z,2.40
2022-12-19T19:33:07.376Z,2.40
2022-12-19T19:35:43.579Z,2.40
2022-12-19T19:38:19.870Z,2.40
2022-12-19T19:40:54.435Z,2.44
2022-12-19T19:43:33.976Z,2.50
2022-12-19T19:46:08.604Z,2.50
2022-12-19T19:48:42.819Z,2.50
2022-12-19T19:51:19.648Z,2.50
2022-12-19T19:53:53.754Z,2.50
2022-12-19T19:56:27.940Z,2.52
2022-12-19T19:59:02.944Z,2.50
2022-12-19T20:01:37.243Z,2.60
2022-12-19T20:04:12.657Z,2.60
2022-12-19T20:06:46.783Z,2.60
2022-12-19T20:09:20.852Z,2.60
2022-12-19T20:11:55.431Z,2.60
2022-12-19T20:14:30.469Z,2.60
2022-12-19T20:17:05.042Z,2.60
2022-12-19T20:19:39.244Z,2.68
2022-12-19T20:22:13.988Z,2.70
2022-12-19T20:24:48.612Z,2.70
2022-12-19T20:27:22.701Z,2.70
2022-12-19T20:29:57.039Z,2.70
2022-12-19T20:32:31.827Z,2.70
2022-12-19T20:35:12.432Z,2.70
2022-12-19T20:37:48.741Z,2.80
2022-12-19T20:40:22.969Z,2.80
2022-12-19T20:42:57.727Z,2.80
2022-12-19T20:45:32.480Z,2.80
2022-12-19T20:48:07.094Z,2.78
2022-12-19T20:50:43.549Z,2.80
2022-12-19T20:53:17.879Z,2.80
2022-12-19T20:55:58.982Z,2.80
2022-12-19T20:58:36.164Z,2.80
2022-12-19T21:01:14.463Z,2.80
2022-12-19T21:03:49.616Z,2.80
2022-12-19T21:06:27.365Z,2.80
2022-12-19T21:09:02.742Z,2.80
2022-12-19T21:11:37.447Z,2.80
2022-12-19T21:14:12.079Z,2.80
2022-12-19T21:16:47.003Z,2.78
2022-12-19T21:19:21.687Z,2.80
2022-12-19T21:21:55.882Z,2.80
2022-12-19T21:24:30.594Z,2.80
2022-12-19T21:27:05.242Z,2.80
2022-12-19T21:29:40.063Z,2.80
2022-12-19T21:32:18.840Z,2.70
2022-12-19T21:34:55.236Z,2.70
2022-12-19T21:37:29.456Z,2.80
2022-12-19T21:40:03.832Z,2.80
2022-12-19T21:42:38.297Z,2.78
2022-12-19T21:45:14.975Z,2.76
2022-12-19T21:47:49.192Z,2.80
2022-12-19T21:50:23.492Z,2.80
2022-12-19T21:52:57.613Z,2.84
2022-12-19T21:55:31.833Z,2.88
2022-12-19T21:58:06.037Z,2.82
2022-12-19T22:00:40.647Z,2.80
2022-12-19T22:03:15.711Z,2.80
2022-12-19T22:05:50.188Z,2.80
2022-12-19T22:08:24.235Z,2.80
2022-12-19T22:10:58.767Z,2.80
2022-12-19T22:13:32.752Z,2.80
2022-12-19T22:16:07.512Z,2.78
2022-12-19T22:18:42.512Z,2.76
2022-12-19T22:21:18.307Z,2.80
2022-12-19T22:23:52.484Z,2.78
2022-12-19T22:26:28.820Z,2.74
2022-12-19T22:29:03.118Z,2.70
2022-12-19T22:31:38.581Z,2.76
2022-12-19T22:34:16.051Z,2.80
2022-12-19T22:36:50.744Z,2.80
2022-12-19T22:39:25.936Z,2.74
2022-12-19T22:42:00.181Z,2.74
2022-12-19T22:44:34.132Z,2.80
2022-12-19T22:47:08.206Z,2.80
2022-12-19T22:49:42.786Z,2.80
2022-12-19T22:52:17.564Z,2.80
2022-12-19T22:54:51.991Z,2.80
2022-12-19T22:57:26.068Z,2.80
2022-12-19T23:00:00.231Z,2.80
2022-12-19T23:02:34.219Z,2.80
2022-12-19T23:05:09.907Z,2.80
2022-12-19T23:07:43.844Z,2.80
2022-12-19T23:10:18.482Z,2.80
2022-12-19T23:12:52.212Z,2.80
2022-12-19T23:15:26.514Z,2.80
2022-12-19T23:18:00.436Z,2.80
2022-12-19T23:20:34.393Z,2.80
2022-12-19T23:23:08.734Z,2.80
2022-12-19T23:25:46.216Z,2.80
2022-12-19T23:28:20.316Z,2.80
2022-12-19T23:31:02.814Z,2.80
2022-12-19T23:33:38.016Z,2.80
2022-12-19T23:36:12.850Z,2.90
2022-12-19T23:38:46.670Z,2.90
2022-12-19T23:41:21.278Z,2.90
2022-12-19T23:43:56.102Z,2.80
2022-12-19T23:46:30.664Z,2.80
2022-12-19T23:49:04.586Z,2.82
2022-12-19T23:51:38.576Z,2.86
2022-12-19T23:54:12.646Z,2.90
2022-12-19T23:56:46.604Z,2.84
2022-12-19T23:59:20.540Z,2.90
